createdAt,value
2023-02-04T00:01:09.099Z,1.17
2023-02-04T00:03:57.702Z,4.32
2023-02-04T00:06:45.938Z,1.95
2023-02-04T00:09:34.168Z,0.90
2023-02-04T00:12:22.589Z,3.00
2023-02-04T00:15:12.221Z,1.05
2023-02-04T00:18:00.450Z,0.80
2023-02-04T00:20:48.746Z,2.67
2023-02-04T00:23:36.952Z,1.67
2023-02-04T00:26:25.184Z,1.98
2023-02-04T00:29:13.431Z,1.48
2023-02-04T00:32:03.054Z,1.85
2023-02-04T00:34:51.416Z,1.52
2023-02-04T00:37:39.673Z,1.65
2023-02-04T00:40:28.074Z,1.80
2023-02-04T00:43:16.435Z,1.98
2023-02-04T00:46:04.772Z,1.52
2023-02-04T00:48:54.424Z,3.63
2023-02-04T00:51:46.378Z,1.45
2023-02-04T00:54:34.662Z,2.05
2023-02-04T00:57:22.927Z,3.38
2023-02-04T01:00:12.450Z,2.05
2023-02-04T01:03:00.754Z,3.70
2023-02-04T01:05:50.478Z,2.55
2023-02-04T01:08:38.678Z,1.85
2023-02-04T01:11:26.983Z,1.95
2023-02-04T01:14:15.265Z,2.05
2023-02-04T01:17:03.517Z,2.10
2023-02-04T01:19:51.762Z,2.00
2023-02-04T01:22:41.488Z,2.75
2023-02-04T01:25:29.724Z,2.15
2023-02-04T01:28:17.997Z,2.83
2023-02-04T01:31:06.634Z,2.85
2023-02-04T01:33:54.874Z,1.70
2023-02-04T01:36:43.079Z,2.10
2023-02-04T01:39:34.116Z,3.22
2023-02-04T01:42:22.586Z,1.83
2023-02-04T01:45:12.088Z,1.80
2023-02-04T01:48:00.458Z,1.73
2023-02-04T01:50:48.928Z,1.55
2023-02-04T01:53:37.925Z,2.65
2023-02-04T01:56:29.239Z,2.42
2023-02-04T01:59:18.851Z,4.07
2023-02-04T02:02:40.315Z,1.60
2023-02-04T02:08:09.919Z,1.38
2023-02-04T02:10:58.226Z,2.90
2023-02-04T02:13:46.533Z,4.22
2023-02-04T02:16:34.954Z,4.47
2023-02-04T02:19:28.931Z,1.77
2023-02-04T02:22:24.960Z,1.85
2023-02-04T02:25:16.236Z,3.17
2023-02-04T02:30:54.705Z,4.22
2023-02-04T02:33:43.701Z,5.95
2023-02-04T02:36:31.941Z,3.72
2023-02-04T02:39:20.650Z,1.98
2023-02-04T02:42:11.664Z,3.33
2023-02-04T02:45:00.959Z,3.28
2023-02-04T02:47:49.555Z,2.75
2023-02-04T02:50:38.471Z,3.78
2023-02-04T02:53:26.789Z,4.32
2023-02-04T02:56:15.090Z,2.25
2023-02-04T02:59:15.462Z,3.03
2023-02-04T03:02:05.322Z,1.93
2023-02-04T03:04:57.734Z,1.90
2023-02-04T03:07:45.992Z,3.28
2023-02-04T03:10:34.664Z,4.13
2023-02-04T03:13:23.840Z,3.03
2023-02-04T03:16:14.403Z,3.80
2023-02-04T03:19:04.014Z,3.42
2023-02-04T03:21:52.343Z,3.25
2023-02-04T03:24:40.631Z,5.25
2023-02-04T03:27:30.115Z,4.63
2023-02-04T03:30:18.413Z,4.47
2023-02-04T03:33:08.016Z,4.68
2023-02-04T03:35:56.220Z,2.55
2023-02-04T03:38:44.439Z,4.15
2023-02-04T03:41:32.654Z,3.58
2023-02-04T03:44:21.916Z,3.22
2023-02-04T03:47:10.262Z,2.33
2023-02-04T03:49:59.802Z,3.50
2023-02-04T03:52:49.047Z,2.63
2023-02-04T03:55:37.222Z,3.50
2023-02-04T03:58:25.895Z,3.45
2023-02-04T04:01:14.052Z,3.20
2023-02-04T04:04:02.260Z,7.72
2023-02-04T04:06:51.785Z,3.95
2023-02-04T04:09:39.962Z,2.47
2023-02-04T04:12:28.217Z,3.83
2023-02-04T04:15:16.638Z,3.25
2023-02-04T04:18:05.424Z,3.90
2023-02-04T04:20:53.606Z,5.38
2023-02-04T04:23:43.179Z,4.07
2023-02-04T04:26:31.342Z,4.15
2023-02-04T04:29:19.577Z,2.80
2023-02-04T04:32:09.697Z,4.22
2023-02-04T04:34:58.030Z,3.55
2023-02-04T04:37:46.243Z,2.38
2023-02-04T04:40:35.774Z,4.15
2023-02-04T04:43:23.994Z,2.63
2023-02-04T04:46:12.206Z,3.75
2023-02-04T04:49:00.500Z,3.17
2023-02-04T04:51:48.727Z,6.80
2023-02-04T04:54:37.148Z,8.27
2023-02-04T04:57:26.745Z,4.18
2023-02-04T05:00:18.738Z,3.05
2023-02-04T05:03:06.948Z,3.15
2023-02-04T05:05:55.138Z,6.20
2023-02-04T05:08:43.500Z,8.68
2023-02-04T05:11:31.730Z,4.78
2023-02-04T05:14:21.274Z,5.45
2023-02-04T05:17:09.503Z,9.65
2023-02-04T05:19:57.789Z,4.43
2023-02-04T05:22:45.995Z,4.38
2023-02-04T05:25:34.504Z,2.70
2023-02-04T05:28:22.686Z,4.65
2023-02-04T05:31:12.429Z,4.50
2023-02-04T05:34:01.148Z,5.00
2023-02-04T05:36:49.387Z,3.97
2023-02-04T05:39:37.568Z,3.05
2023-02-04T05:42:25.831Z,8.25
2023-02-04T05:45:18.681Z,4.35
2023-02-04T05:48:08.270Z,5.40
2023-02-04T05:50:56.483Z,5.82
2023-02-04T05:53:44.733Z,5.13
2023-02-04T05:56:33.703Z,4.82
2023-02-04T05:59:21.916Z,6.07
2023-02-04T06:02:10.156Z,8.73
2023-02-04T06:04:59.703Z,7.10
2023-02-04T06:07:47.949Z,4.50
2023-02-04T06:10:36.263Z,5.63
2023-02-04T06:13:24.460Z,6.55
2023-02-04T06:16:14.735Z,6.18
2023-02-04T06:19:03.186Z,4.57
2023-02-04T06:21:52.812Z,5.43
2023-02-04T06:24:41.047Z,3.90
2023-02-04T06:27:29.211Z,7.57
2023-02-04T06:30:18.157Z,11.32
2023-02-04T06:33:06.358Z,13.65
2023-02-04T06:35:54.597Z,13.35
2023-02-04T06:38:44.130Z,9.10
2023-02-04T06:41:32.410Z,8.55
2023-02-04T06:44:20.591Z,21.27
2023-02-04T06:47:08.919Z,16.42
2023-02-04T06:49:57.388Z,12.95
2023-02-04T06:52:46.686Z,9.70
2023-02-04T06:55:36.312Z,9.70
2023-02-04T06:58:24.540Z,9.18
2023-02-04T07:01:12.779Z,8.48
2023-02-04T07:04:01.358Z,12.63
2023-02-04T07:06:49.765Z,7.25
2023-02-04T07:09:40.589Z,8.05
2023-02-04T07:12:30.206Z,12.55
2023-02-04T07:15:18.704Z,18.98
2023-02-04T07:18:07.032Z,17.73
2023-02-04T07:20:55.261Z,8.15
2023-02-04T07:23:43.488Z,9.13
2023-02-04T07:26:31.720Z,8.98
2023-02-04T07:29:25.736Z,7.28
2023-02-04T07:32:14.552Z,6.20
2023-02-04T07:35:02.742Z,5.60
2023-02-04T07:37:51.020Z,5.78
2023-02-04T07:40:40.373Z,5.43
2023-02-04T07:43:28.926Z,6.45
2023-02-04T07:46:18.544Z,4.35
2023-02-04T07:49:06.782Z,7.13
2023-02-04T07:51:54.984Z,5.47
2023-02-04T07:54:43.206Z,8.55
2023-02-04T07:57:31.469Z,7.38
2023-02-04T08:00:20.442Z,9.02
2023-02-04T08:03:10.218Z,12.75
2023-02-04T08:05:58.430Z,10.25
2023-02-04T08:08:46.623Z,16.27
2023-02-04T08:11:34.863Z,18.15
2023-02-04T08:14:23.102Z,31.95
2023-02-04T08:17:11.530Z,26.45
2023-02-04T08:20:01.070Z,13.48
2023-02-04T08:22:49.339Z,9.68
2023-02-04T08:25:37.583Z,5.80
2023-02-04T08:28:25.812Z,5.97
2023-02-04T08:31:14.173Z,7.43
2023-02-04T08:34:02.481Z,5.57
2023-02-04T08:36:52.060Z,7.70
2023-02-04T08:39:44.419Z,4.18
2023-02-04T08:42:32.658Z,4.72
2023-02-04T08:45:21.203Z,8.40
2023-02-04T08:48:09.671Z,7.28
2023-02-04T08:50:57.918Z,8.20
2023-02-04T08:53:47.822Z,7.72
2023-02-04T08:56:37.983Z,7.60
2023-02-04T08:59:26.846Z,6.57
2023-02-04T09:02:15.135Z,3.85
2023-02-04T09:05:03.409Z,6.82
2023-02-04T09:07:51.669Z,3.88
2023-02-04T09:10:41.264Z,6.13
2023-02-04T09:13:29.533Z,4.05
2023-02-04T09:16:18.645Z,7.00
2023-02-04T09:19:11.231Z,5.05
2023-02-04T09:22:09.924Z,7.15
2023-02-04T09:24:58.360Z,4.40
2023-02-04T09:27:48.175Z,2.42
2023-02-04T09:30:36.544Z,3.92
2023-02-04T09:33:25.144Z,4.80
2023-02-04T09:36:14.166Z,3.63
2023-02-04T09:39:04.164Z,5.07
2023-02-04T09:41:54.047Z,6.95
2023-02-04T09:44:45.375Z,4.65
2023-02-04T09:47:33.665Z,3.05
2023-02-04T09:50:25.452Z,4.03
2023-02-04T09:53:17.512Z,3.58
2023-02-04T09:56:06.633Z,1.70
2023-02-04T09:58:54.896Z,4.32
2023-02-04T10:01:44.976Z,2.85
2023-02-04T10:04:33.234Z,3.55
2023-02-04T10:07:25.287Z,3.47
2023-02-04T10:10:17.383Z,2.88
2023-02-04T10:13:05.769Z,2.50
2023-02-04T10:15:54.343Z,4.43
2023-02-04T10:18:44.960Z,1.92
2023-02-04T10:21:36.919Z,4.18
2023-02-04T10:24:28.228Z,6.18
2023-02-04T10:27:17.293Z,3.75
2023-02-04T10:30:06.321Z,5.25
2023-02-04T10:32:55.077Z,2.08
2023-02-04T10:35:50.397Z,5.32
2023-02-04T10:38:38.617Z,4.15
2023-02-04T10:41:27.200Z,5.85
2023-02-04T10:44:16.987Z,1.50
2023-02-04T10:47:08.575Z,3.35
2023-02-04T10:49:59.878Z,4.18
2023-02-04T10:55:38.886Z,2.53
2023-02-04T10:58:29.920Z,4.18
2023-02-04T11:01:18.267Z,1.98
2023-02-04T11:04:11.426Z,3.33
2023-02-04T11:07:00.638Z,3.25
2023-02-04T11:09:50.717Z,3.08
2023-02-04T11:12:41.714Z,6.10
2023-02-04T11:15:42.724Z,4.00
2023-02-04T11:18:31.245Z,4.35
2023-02-04T11:21:26.896Z,2.97
2023-02-04T11:24:25.876Z,2.30
2023-02-04T11:27:23.553Z,1.67
2023-02-04T11:30:22.368Z,2.57
2023-02-04T11:33:24.641Z,3.75
2023-02-04T11:36:15.643Z,2.55
2023-02-04T11:39:14.234Z,4.65
2023-02-04T11:42:02.771Z,2.85
2023-02-04T11:44:54.636Z,4.43
2023-02-04T11:47:43.870Z,5.60
2023-02-04T11:50:34.420Z,2.63
2023-02-04T11:53:25.547Z,3.17
2023-02-04T11:59:06.440Z,1.48
2023-02-04T12:02:07.224Z,2.78
2023-02-04T12:04:57.552Z,1.80
2023-02-04T12:07:47.654Z,1.42
2023-02-04T12:10:36.682Z,2.10
2023-02-04T12:13:26.109Z,6.20
2023-02-04T12:16:14.428Z,3.80
2023-02-04T12:19:04.206Z,3.33
2023-02-04T12:21:52.607Z,1.70
2023-02-04T12:24:40.851Z,4.20
2023-02-04T12:27:29.064Z,1.90
2023-02-04T12:30:18.570Z,2.42
2023-02-04T12:33:07.195Z,1.75
2023-02-04T12:35:56.770Z,3.60
2023-02-04T12:38:44.976Z,1.70
2023-02-04T12:41:33.304Z,1.45
2023-02-04T12:44:21.513Z,1.17
2023-02-04T12:47:09.792Z,1.13
2023-02-04T12:49:57.987Z,1.90
2023-02-04T12:52:47.563Z,3.35
2023-02-04T12:55:35.903Z,3.50
2023-02-04T12:58:24.153Z,1.83
2023-02-04T13:01:12.530Z,1.40
2023-02-04T13:04:00.786Z,1.60
2023-02-04T13:06:49.050Z,1.38
2023-02-04T13:09:38.699Z,1.88
2023-02-04T13:12:27.110Z,2.30
2023-02-04T13:15:15.426Z,3.30
2023-02-04T13:18:03.667Z,2.10
2023-02-04T13:20:51.833Z,1.15
2023-02-04T13:23:40.045Z,3.65
2023-02-04T13:26:29.578Z,1.73
2023-02-04T13:29:18.391Z,1.95
2023-02-04T13:32:06.785Z,1.77
2023-02-04T13:34:55.039Z,1.98
2023-02-04T13:37:43.377Z,1.05
2023-02-04T13:40:31.557Z,2.05
2023-02-04T13:43:21.225Z,4.60
2023-02-04T13:46:09.807Z,1.08
2023-02-04T13:48:58.084Z,1.38
2023-02-04T13:51:46.425Z,4.20
2023-02-04T13:54:36.702Z,3.53
2023-02-04T13:57:25.031Z,2.20
2023-02-04T14:00:15.736Z,1.45
2023-02-04T14:03:04.139Z,2.58
2023-02-04T14:05:52.657Z,1.00
2023-02-04T14:08:40.877Z,2.75
2023-02-04T14:11:29.358Z,0.90
2023-02-04T14:14:17.769Z,1.80
2023-02-04T14:17:07.357Z,2.10
2023-02-04T14:19:55.727Z,1.80
2023-02-04T14:22:43.999Z,0.95
2023-02-04T14:25:32.710Z,1.75
2023-02-04T14:28:20.982Z,1.85
2023-02-04T14:31:09.347Z,2.90
2023-02-04T14:33:59.304Z,2.00
2023-02-04T14:36:47.534Z,1.13
2023-02-04T14:39:35.833Z,1.73
2023-02-04T14:42:24.047Z,0.88
2023-02-04T14:45:13.545Z,2.78
2023-02-04T14:48:02.818Z,2.28
2023-02-04T14:50:52.525Z,2.47
2023-02-04T14:53:46.057Z,1.38
2023-02-04T14:56:36.464Z,1.13
2023-02-04T14:59:24.714Z,3.53
2023-02-04T15:02:15.254Z,1.55
2023-02-04T15:05:03.776Z,5.05
2023-02-04T15:07:53.475Z,3.10
2023-02-04T15:10:41.751Z,2.92
2023-02-04T15:13:30.328Z,4.40
2023-02-04T15:16:18.796Z,3.00
2023-02-04T15:19:07.299Z,3.60
2023-02-04T15:21:55.517Z,2.42
2023-02-04T15:24:45.158Z,2.35
2023-02-04T15:27:33.426Z,3.55
2023-02-04T15:30:21.872Z,2.97
2023-02-04T15:33:13.027Z,6.60
2023-02-04T15:38:50.148Z,4.05
2023-02-04T15:41:40.063Z,3.58
2023-02-04T15:44:28.410Z,2.50
2023-02-04T15:47:16.649Z,4.22
2023-02-04T15:50:08.708Z,4.85
2023-02-04T15:52:57.500Z,7.47
2023-02-04T15:55:45.899Z,6.45
2023-02-04T15:58:35.519Z,6.72
2023-02-04T16:01:23.989Z,4.75
2023-02-04T16:04:12.230Z,5.18
2023-02-04T16:07:00.446Z,6.40
2023-02-04T16:09:48.695Z,6.78
2023-02-04T16:12:36.917Z,5.78
2023-02-04T16:15:26.653Z,9.23
2023-02-04T16:18:14.905Z,5.18
2023-02-04T16:21:03.145Z,3.80
2023-02-04T16:23:51.391Z,4.72
2023-02-04T16:26:39.784Z,4.65
2023-02-04T16:29:28.023Z,6.22
2023-02-04T16:32:17.601Z,6.68
2023-02-04T16:35:06.817Z,6.32
2023-02-04T16:37:55.569Z,6.53
2023-02-04T16:40:43.796Z,8.13
2023-02-04T16:43:32.288Z,6.50
2023-02-04T16:46:20.565Z,7.95
2023-02-04T16:49:10.215Z,5.82
2023-02-04T16:51:58.445Z,4.72
2023-02-04T16:54:46.651Z,32.22
2023-02-04T16:57:34.872Z,16.27
2023-02-04T17:00:24.150Z,15.70
2023-02-04T17:03:13.119Z,16.75
2023-02-04T17:06:03.006Z,16.75
2023-02-04T17:08:51.231Z,22.95
2023-02-04T17:11:39.481Z,22.02
2023-02-04T17:14:27.787Z,28.73
2023-02-04T17:17:16.024Z,28.67
2023-02-04T17:20:04.464Z,29.25
2023-02-04T17:22:54.502Z,27.05
2023-02-04T17:25:42.827Z,29.42
2023-02-04T17:28:31.111Z,30.40
2023-02-04T17:31:19.372Z,27.30
2023-02-04T17:34:07.897Z,24.02
2023-02-04T17:36:56.214Z,17.88
2023-02-04T17:39:45.793Z,14.88
2023-02-04T17:42:34.027Z,13.00
2023-02-04T17:45:22.346Z,10.82
2023-02-04T17:48:10.583Z,10.25
2023-02-04T17:50:58.861Z,11.27
2023-02-04T17:53:47.128Z,5.97
2023-02-04T17:56:36.730Z,7.85
2023-02-04T17:59:26.096Z,4.38
2023-02-04T18:02:25.838Z,5.00
2023-02-04T18:05:17.028Z,5.85
2023-02-04T18:08:14.040Z,5.45
2023-02-04T18:11:02.251Z,4.88
2023-02-04T18:13:52.764Z,8.73
2023-02-04T18:16:41.651Z,5.15
2023-02-04T18:19:31.489Z,7.00
2023-02-04T18:22:19.752Z,5.57
2023-02-04T18:25:17.678Z,5.93
2023-02-04T18:28:14.605Z,6.53
2023-02-04T18:31:04.785Z,7.30
2023-02-04T18:33:53.092Z,5.43
2023-02-04T18:36:41.358Z,3.30
2023-02-04T18:39:31.682Z,4.78
2023-02-04T18:42:26.062Z,5.67
2023-02-04T18:45:23.855Z,4.75
2023-02-04T18:48:55.013Z,4.68
2023-02-04T18:51:46.095Z,8.57
2023-02-04T18:54:36.482Z,5.20
2023-02-04T18:57:38.095Z,5.70
2023-02-04T19:00:32.195Z,9.23
2023-02-04T19:03:26.607Z,6.53
2023-02-04T19:06:26.911Z,5.85
2023-02-04T19:09:25.144Z,6.10
2023-02-04T19:12:22.536Z,6.60
2023-02-04T19:15:28.252Z,4.75
2023-02-04T19:18:23.600Z,5.75
2023-02-04T19:21:27.546Z,4.82
2023-02-04T19:24:20.806Z,6.18
2023-02-04T19:27:29.140Z,9.52
2023-02-04T19:30:46.502Z,6.13
2023-02-04T19:33:38.642Z,6.50
2023-02-04T19:36:33.907Z,3.92
2023-02-04T19:39:31.759Z,6.47
2023-02-04T19:42:36.364Z,4.38
2023-02-04T19:45:26.679Z,5.28
2023-02-04T19:48:33.292Z,4.33
2023-02-04T19:51:28.100Z,6.15
2023-02-04T19:54:20.007Z,4.72
2023-02-04T19:57:23.211Z,5.85
2023-02-04T20:00:37.218Z,7.38
2023-02-04T20:03:35.746Z,6.07
2023-02-04T20:06:31.122Z,6.20
2023-02-04T20:09:22.642Z,7.78
2023-02-04T20:12:14.729Z,5.30
2023-02-04T20:15:12.184Z,5.18
2023-02-04T20:18:07.842Z,5.30
2023-02-04T20:20:56.338Z,5.22
2023-02-04T20:23:44.529Z,5.20
2023-02-04T20:26:33.783Z,4.88
2023-02-04T20:29:23.944Z,5.75
2023-02-04T20:32:18.933Z,6.55
2023-02-04T20:36:11.283Z,8.25
2023-02-04T20:39:35.678Z,6.88
2023-02-04T20:42:36.263Z,13.00
2023-02-04T20:45:29.625Z,8.35
2023-02-04T20:48:29.888Z,16.50
2023-02-04T20:51:23.252Z,25.80
2023-02-04T20:54:17.417Z,24.13
2023-02-04T20:57:16.472Z,17.50
2023-02-04T21:00:14.548Z,29.08
2023-02-04T21:03:17.905Z,25.88
2023-02-04T21:06:24.348Z,26.10
2023-02-04T21:09:23.825Z,15.40
2023-02-04T21:12:12.320Z,15.02
2023-02-04T21:15:00.544Z,18.58
2023-02-04T21:17:48.784Z,14.80
2023-02-04T21:20:37.228Z,13.50
2023-02-04T21:23:25.550Z,20.85
2023-02-04T21:26:15.096Z,21.25
2023-02-04T21:29:03.916Z,20.60
2023-02-04T21:31:52.846Z,18.17
2023-02-04T21:34:41.147Z,22.80
2023-02-04T21:37:29.359Z,28.67
2023-02-04T21:40:21.807Z,30.85
2023-02-04T21:43:11.483Z,24.40
2023-02-04T21:46:00.578Z,26.92
2023-02-04T21:48:48.889Z,30.30
2023-02-04T21:51:37.116Z,32.72
2023-02-04T21:54:25.303Z,32.72
2023-02-04T21:57:15.154Z,33.33
2023-02-04T22:00:05.737Z,33.75
2023-02-04T22:02:54.492Z,33.63
2023-02-04T22:05:42.948Z,29.38
2023-02-04T22:08:31.170Z,30.30
2023-02-04T22:11:19.417Z,30.15
2023-02-04T22:14:07.749Z,26.25
2023-02-04T22:16:57.323Z,29.05
2023-02-04T22:19:45.545Z,22.65
2023-02-04T22:22:33.883Z,22.95
2023-02-04T22:25:22.956Z,17.02
2023-02-04T22:28:11.214Z,16.02
2023-02-04T22:30:59.586Z,14.80
2023-02-04T22:33:49.187Z,15.27
2023-02-04T22:36:37.412Z,17.52
2023-02-04T22:39:26.101Z,11.27
2023-02-04T22:42:14.371Z,14.05
2023-02-04T22:45:03.832Z,11.82
2023-02-04T22:47:52.108Z,15.45
2023-02-04T22:50:41.687Z,9.05
2023-02-04T22:53:30.004Z,10.30
2023-02-04T22:56:18.271Z,6.75
2023-02-04T22:59:06.480Z,8.57
2023-02-04T23:01:55.213Z,10.07
2023-02-04T23:04:44.152Z,7.72
2023-02-04T23:07:34.207Z,8.90
2023-02-04T23:10:22.510Z,6.88
2023-02-04T23:13:10.873Z,9.77
2023-02-04T23:15:59.185Z,11.07
2023-02-04T23:18:47.638Z,7.68
2023-02-04T23:21:35.972Z,5.90
2023-02-04T23:24:25.577Z,7.60
2023-02-04T23:27:13.868Z,7.05
2023-02-04T23:30:02.092Z,7.20
2023-02-04T23:32:50.325Z,6.90
2023-02-04T23:35:38.553Z,7.45
2023-02-04T23:38:26.882Z,9.07
2023-02-04T23:41:16.562Z,8.38
2023-02-04T23:44:05.095Z,7.68
2023-02-04T23:46:53.347Z,6.97
2023-02-04T23:49:41.565Z,6.95
2023-02-04T23:52:30.224Z,6.93
2023-02-04T23:55:18.772Z,6.40
2023-02-04T23:58:08.344Z,6.82
